Time,TemperatureF,DewpointF,PressureIn,WindDirection,WindDirectionDegrees,WindSpeedMPH,WindSpeedGustMPH,Humidity,HourlyPrecipIn,Conditions,Clouds,dailyrainin,SoftwareType,DateUTC
2013-06-10 00:11:00,56.5,56.0,30.16,South,174,0.0,0.0,98,0.00,,,0.00,weatherlink.com 1.10,2013-06-10 04:11:00,
2013-06-10 00:26:00,56.3,56.0,30.16,South,175,0.0,0.0,98,0.00,,,0.00,weatherlink.com 1.10,2013-06-10 04:26:00,
2013-06-10 00:41:00,56.3,56.0,30.16,South,175,0.0,0.0,98,0.00,,,0.00,weatherlink.com 1.10,2013-06-10 04:41:00,
2013-06-10 00:56:00,55.4,55.0,30.16,South,175,0.0,0.0,98,0.00,,,0.00,weatherlink.com 1.10,2013-06-10 04:56:00,
2013-06-10 01:11:00,55.6,55.0,30.15,South,174,0.0,0.0,98,0.00,,,0.00,weatherlink.com 1.10,2013-06-10 05:11:00,
2013-06-10 01:26:00,55.6,55.0,30.16,South,174,0.0,0.0,99,0.00,,,0.00,weatherlink.com 1.10,2013-06-10 05:26:00,
2013-06-10 01:41:00,55.4,55.0,30.16,South,174,0.0,0.0,99,0.00,,,0.00,weatherlink.com 1.10,2013-06-10 05:41:00,
2013-06-10 01:56:00,55.6,55.0,30.16,South,174,0.0,0.0,99,0.00,,,0.00,weatherlink.com 1.10,2013-06-10 05:56:00,
2013-06-10 02:11:00,55.5,55.0,30.16,South,174,0.0,0.0,99,0.00,,,0.00,weatherlink.com 1.10,2013-06-10 06:11:00,
2013-06-10 02:26:00,55.6,55.0,30.16,South,175,0.0,0.0,99,0.00,,,0.00,weatherlink.com 1.10,2013-06-10 06:26:00,
2013-06-10 02:41:00,55.9,56.0,30.15,South,175,0.0,0.0,99,0.00,,,0.00,weatherlink.com 1.10,2013-06-10 06:41:00,
2013-06-10 02:56:00,56.0,56.0,30.15,South,175,0.0,0.0,99,0.00,,,0.00,weatherlink.com 1.10,2013-06-10 06:56:00,
2013-06-10 03:12:00,56.5,56.0,30.15,South,175,0.0,0.0,99,0.00,,,0.00,weatherlink.com 1.10,2013-06-10 07:12:00,
2013-06-10 03:27:00,56.6,56.0,30.15,South,174,0.0,0.0,99,0.00,,,0.00,weatherlink.com 1.10,2013-06-10 07:27:00,
2013-06-10 03:42:00,56.5,56.0,30.15,South,175,0.0,0.0,99,0.00,,,0.00,weatherlink.com 1.10,2013-06-10 07:42:00,
2013-06-10 03:57:00,56.1,56.0,30.14,South,174,0.0,0.0,99,0.00,,,0.00,weatherlink.com 1.10,2013-06-10 07:57:00,
2013-06-10 04:12:00,55.8,56.0,30.15,South,174,0.0,0.0,99,0.00,,,0.00,weatherlink.com 1.10,2013-06-10 08:12:00,
2013-06-10 04:27:00,55.8,56.0,30.15,South,175,0.0,0.0,99,0.00,,,0.00,weatherlink.com 1.10,2013-06-10 08:27:00,
2013-06-10 04:42:00,55.9,56.0,30.15,South,174,0.0,0.0,99,0.00,,,0.00,weatherlink.com 1.10,2013-06-10 08:42:00,
2013-06-10 04:57:00,56.1,56.0,30.15,South,175,0.0,0.0,99,0.00,,,0.00,weatherlink.com 1.10,2013-06-10 08:57:00,
2013-06-10 05:12:00,56.0,56.0,30.15,South,174,0.0,0.0,99,0.00,,,0.00,weatherlink.com 1.10,2013-06-10 09:12:00,
2013-06-10 05:27:00,55.8,56.0,30.15,South,174,0.0,0.0,99,0.00,,,0.00,weatherlink.com 1.10,2013-06-10 09:27:00,
2013-06-10 05:42:00,55.7,56.0,30.14,South,175,0.0,0.0,99,0.00,,,0.00,weatherlink.com 1.10,2013-06-10 09:42:00,
2013-06-10 05:57:00,56.3,56.0,30.14,South,174,0.0,0.0,99,0.00,,,0.00,weatherlink.com 1.10,2013-06-10 09:57:00,
2013-06-10 06:12:00,56.9,57.0,30.14,South,174,0.0,0.0,99,0.00,,,0.00,weatherlink.com 1.10,2013-06-10 10:12:00,
2013-06-10 06:27:00,57.5,57.0,30.14,South,174,0.0,0.0,99,0.00,,,0.00,weatherlink.com 1.10,2013-06-10 10:27:00,
2013-06-10 06:42:00,58.2,58.0,30.14,South,174,0.0,0.0,100,0.00,,,0.00,weatherlink.com 1.10,2013-06-10 10:42:00,
2013-06-10 06:57:00,59.1,59.0,30.15,South,174,0.0,0.0,100,0.00,,,0.00,weatherlink.com 1.10,2013-06-10 10:57:00,
2013-06-10 07:12:00,59.6,59.0,30.15,South,175,0.0,0.0,99,0.00,,,0.00,weatherlink.com 1.10,2013-06-10 11:12:00,
2013-06-10 07:27:00,60.3,60.0,30.15,South,174,0.0,0.0,99,0.00,,,0.00,weatherlink.com 1.10,2013-06-10 11:27:00,
2013-06-10 07:42:00,61.0,61.0,30.14,South,175,0.0,0.0,99,0.00,,,0.00,weatherlink.com 1.10,2013-06-10 11:42:00,
2013-06-10 07:57:00,61.3,61.0,30.14,South,175,0.0,0.0,99,0.00,,,0.00,weatherlink.com 1.10,2013-06-10 11:57:00,
2013-06-10 08:12:00,62.0,62.0,30.14,South,174,0.0,0.0,99,0.00,,,0.00,weatherlink.com 1.10,2013-06-10 12:12:00,
2013-06-10 08:27:00,63.0,63.0,30.13,South,175,0.0,0.0,98,0.00,,,0.00,weatherlink.com 1.10,2013-06-10 12:27:00,
2013-06-10 08:42:00,63.6,63.0,30.13,South,175,0.0,0.0,97,0.00,,,0.00,weatherlink.com 1.10,2013-06-10 12:42:00,
2013-06-10 08:57:00,64.3,64.0,30.13,South,175,0.0,0.0,97,0.00,,,0.00,weatherlink.com 1.10,2013-06-10 12:57:00,
2013-06-10 09:12:00,65.1,63.0,30.13,NE,34,0.0,3.0,93,0.00,,,0.00,weatherlink.com 1.10,2013-06-10 13:12:00,
2013-06-10 09:27:00,65.6,63.0,30.14,NE,34,0.0,0.0,92,0.00,,,0.00,weatherlink.com 1.10,2013-06-10 13:27:00,
2013-06-10 09:42:00,66.1,63.0,30.13,NE,37,0.0,0.0,90,0.00,,,0.00,weatherlink.com 1.10,2013-06-10 13:42:00,
2013-06-10 09:57:00,66.5,63.0,30.13,ENE,74,0.0,0.0,89,0.00,,,0.00,weatherlink.com 1.10,2013-06-10 13:57:00,
2013-06-10 10:12:00,67.7,64.0,30.14,West,278,0.0,0.0,87,0.00,,,0.00,weatherlink.com 1.10,2013-06-10 14:12:00,
2013-06-10 10:27:00,69.2,65.0,30.13,SE,129,0.0,0.0,86,0.00,,,0.00,weatherlink.com 1.10,2013-06-10 14:27:00,
2013-06-10 10:43:00,70.2,65.0,30.13,ESE,108,0.0,0.0,83,0.00,,,0.00,weatherlink.com 1.10,2013-06-10 14:43:00,
2013-06-10 10:58:00,70.1,65.0,30.12,SE,127,0.0,0.0,85,0.00,,,0.00,weatherlink.com 1.10,2013-06-10 14:58:00,
2013-06-10 11:13:00,70.2,66.0,30.12,SE,126,0.0,0.0,85,0.00,,,0.00,weatherlink.com 1.10,2013-06-10 15:13:00,
2013-06-10 11:28:00,70.4,65.0,30.12,West,274,0.0,1.0,83,0.00,,,0.00,weatherlink.com 1.10,2013-06-10 15:28:00,
2013-06-10 11:43:00,71.1,66.0,30.11,ESE,106,1.0,2.0,85,0.00,,,0.00,weatherlink.com 1.10,2013-06-10 15:43:00,
2013-06-10 11:58:00,72.2,66.0,30.11,SE,130,1.0,3.0,82,0.00,,,0.00,weatherlink.com 1.10,2013-06-10 15:58:00,
2013-06-10 12:13:00,72.1,66.0,30.11,SE,130,1.0,4.0,80,0.00,,,0.00,weatherlink.com 1.10,2013-06-10 16:13:00,
2013-06-10 12:28:00,72.7,67.0,30.11,ESE,103,0.0,3.0,81,0.00,,,0.00,weatherlink.com 1.10,2013-06-10 16:28:00,
2013-06-10 12:43:00,72.5,66.0,30.10,ESE,122,0.0,4.0,81,0.00,,,0.00,weatherlink.com 1.10,2013-06-10 16:43:00,
2013-06-10 12:58:00,72.7,67.0,30.09,WSW,246,0.0,4.0,81,0.00,,,0.00,weatherlink.com 1.10,2013-06-10 16:58:00,
2013-06-10 13:13:00,72.7,66.0,30.09,SE,130,0.0,3.0,80,0.00,,,0.00,weatherlink.com 1.10,2013-06-10 17:13:00,
2013-06-10 13:28:00,72.2,66.0,30.09,SE,130,1.0,2.0,82,0.00,,,0.00,weatherlink.com 1.10,2013-06-10 17:28:00,
2013-06-10 13:43:00,72.1,66.0,30.09,West,280,2.0,6.0,80,0.00,,,0.00,weatherlink.com 1.10,2013-06-10 17:43:00,
2013-06-10 13:58:00,71.2,66.0,30.09,SE,133,1.0,2.0,83,0.00,,,0.00,weatherlink.com 1.10,2013-06-10 17:58:00,
2013-06-10 14:13:00,70.5,66.0,30.08,SE,135,1.0,5.0,84,0.00,,,0.00,weatherlink.com 1.10,2013-06-10 18:13:00,
2013-06-10 14:28:00,70.0,65.0,30.08,ESE,117,2.0,6.0,84,0.00,,,0.00,weatherlink.com 1.10,2013-06-10 18:28:00,
2013-06-10 14:43:00,69.7,66.0,30.08,WNW,297,1.0,4.0,87,0.00,,,0.00,weatherlink.com 1.10,2013-06-10 18:43:00,
2013-06-10 14:58:00,67.7,65.0,30.07,ESE,111,1.0,3.0,91,0.01,,,0.01,weatherlink.com 1.10,2013-06-10 18:58:00,
2013-06-10 15:13:00,66.6,65.0,30.06,SE,127,1.0,3.0,93,0.02,,,0.02,weatherlink.com 1.10,2013-06-10 19:13:00,
2013-06-10 15:28:00,66.3,65.0,30.05,ESE,104,3.0,3.0,94,0.02,,,0.02,weatherlink.com 1.10,2013-06-10 19:28:00,
2013-06-10 15:43:00,65.7,64.0,30.05,ESE,121,2.0,4.0,94,0.04,,,0.04,weatherlink.com 1.10,2013-06-10 19:43:00,
2013-06-10 15:58:00,65.0,63.0,30.04,ESE,104,2.0,7.0,94,0.04,,,0.05,weatherlink.com 1.10,2013-06-10 19:58:00,
2013-06-10 16:13:00,64.6,63.0,30.04,WNW,287,1.0,5.0,95,0.05,,,0.07,weatherlink.com 1.10,2013-06-10 20:13:00,
2013-06-10 16:28:00,64.0,63.0,30.03,NW,315,1.0,6.0,95,0.06,,,0.08,weatherlink.com 1.10,2013-06-10 20:28:00,
2013-06-10 16:43:00,63.7,63.0,30.03,ESE,108,1.0,3.0,96,0.06,,,0.10,weatherlink.com 1.10,2013-06-10 20:43:00,
2013-06-10 16:58:00,63.2,62.0,30.02,SE,124,1.0,2.0,96,0.07,,,0.12,weatherlink.com 1.10,2013-06-10 20:58:00,
2013-06-10 17:13:00,63.1,62.0,30.01,SE,127,0.0,2.0,97,0.06,,,0.13,weatherlink.com 1.10,2013-06-10 21:13:00,
2013-06-10 17:28:00,62.9,62.0,30.00,ESE,121,0.0,4.0,97,0.05,,,0.13,weatherlink.com 1.10,2013-06-10 21:28:00,
2013-06-10 17:43:00,62.5,62.0,30.00,ESE,112,2.0,7.0,97,0.06,,,0.16,weatherlink.com 1.10,2013-06-10 21:43:00,
2013-06-10 17:58:00,61.8,61.0,30.00,ESE,121,1.0,4.0,97,0.08,,,0.20,weatherlink.com 1.10,2013-06-10 21:58:00,
2013-06-10 18:13:00,61.4,61.0,29.99,SE,129,0.0,3.0,97,0.09,,,0.22,weatherlink.com 1.10,2013-06-10 22:13:00,
2013-06-10 18:28:00,61.1,60.0,29.99,ESE,121,0.0,3.0,97,0.14,,,0.27,weatherlink.com 1.10,2013-06-10 22:28:00,
2013-06-10 18:43:00,60.9,60.0,29.98,SE,129,0.0,4.0,97,0.14,,,0.30,weatherlink.com 1.10,2013-06-10 22:43:00,
2013-06-10 18:59:00,60.6,60.0,29.98,SE,124,0.0,3.0,98,0.10,,,0.31,weatherlink.com 1.10,2013-06-10 22:59:00,
2013-06-10 19:14:00,60.5,60.0,29.97,SW,226,0.0,2.0,98,0.09,,,0.31,weatherlink.com 1.10,2013-06-10 23:14:00,
2013-06-10 19:29:00,60.4,60.0,29.96,ESE,115,0.0,5.0,98,0.06,,,0.33,weatherlink.com 1.10,2013-06-10 23:29:00,
2013-06-10 19:44:00,60.3,60.0,29.97,ESE,117,1.0,4.0,98,0.05,,,0.35,weatherlink.com 1.10,2013-06-10 23:44:00,
2013-06-10 19:59:00,60.2,60.0,29.95,SE,131,1.0,8.0,98,0.07,,,0.38,weatherlink.com 1.10,2013-06-10 23:59:00,
2013-06-10 20:14:00,60.0,60.0,29.95,SE,127,1.0,3.0,98,0.09,,,0.40,weatherlink.com 1.10,2013-06-11 00:14:00,
2013-06-10 20:29:00,59.9,59.0,29.95,WSW,243,0.0,4.0,98,0.12,,,0.45,weatherlink.com 1.10,2013-06-11 00:29:00,
2013-06-10 20:44:00,59.8,59.0,29.95,SE,127,1.0,2.0,98,0.13,,,0.48,weatherlink.com 1.10,2013-06-11 00:44:00,
2013-06-10 20:59:00,59.8,59.0,29.95,SE,127,1.0,3.0,98,0.10,,,0.49,weatherlink.com 1.10,2013-06-11 00:59:00,
2013-06-10 21:14:00,59.7,59.0,29.94,SE,132,0.0,2.0,98,0.10,,,0.50,weatherlink.com 1.10,2013-06-11 01:14:00,
2013-06-10 21:29:00,59.7,59.0,29.94,SE,134,4.0,5.0,98,0.05,,,0.51,weatherlink.com 1.10,2013-06-11 01:29:00,
2013-06-10 21:44:00,59.7,60.0,29.93,East,101,0.0,5.0,99,0.03,,,0.51,weatherlink.com 1.10,2013-06-11 01:44:00,
2013-06-10 21:59:00,59.7,60.0,29.93,ENE,61,0.0,3.0,99,0.03,,,0.52,weatherlink.com 1.10,2013-06-11 01:59:00,
2013-06-10 22:14:00,59.7,59.0,29.93,WNW,300,2.0,4.0,98,0.01,,,0.52,weatherlink.com 1.10,2013-06-11 02:14:00,
2013-06-10 22:29:00,59.6,59.0,29.92,WNW,287,0.0,4.0,98,0.02,,,0.53,weatherlink.com 1.10,2013-06-11 02:29:00,
2013-06-10 22:44:00,59.5,59.0,29.90,ESE,120,1.0,5.0,98,0.08,,,0.59,weatherlink.com 1.10,2013-06-11 02:44:00,
2013-06-10 22:59:00,59.5,59.0,29.90,ESE,121,0.0,4.0,98,0.22,,,0.74,weatherlink.com 1.10,2013-06-11 02:59:00,
2013-06-10 23:14:00,59.4,59.0,29.89,WNW,293,2.0,2.0,98,0.36,,,0.88,weatherlink.com 1.10,2013-06-11 03:14:00,
2013-06-10 23:29:00,59.4,59.0,29.89,ESE,121,0.0,2.0,99,0.42,,,0.96,weatherlink.com 1.10,2013-06-11 03:29:00,
2013-06-10 23:44:00,59.4,59.0,29.89,SSW,193,0.0,1.0,99,0.37,,,0.96,weatherlink.com 1.10,2013-06-11 03:44:00,
2013-06-10 23:59:00,59.3,59.0,29.88,SE,132,0.0,1.0,99,0.23,,,0.98,weatherlink.com 1.10,2013-06-11 03:59:00,